createdAt,value
2022-10-13T00:00:07.414Z,0
2022-10-13T00:03:07.336Z,0
2022-10-13T00:06:07.327Z,0
2022-10-13T00:09:07.326Z,0
2022-10-13T00:12:07.348Z,0
2022-10-13T00:15:07.309Z,0
2022-10-13T00:18:07.343Z,0
2022-10-13T00:21:07.299Z,0
2022-10-13T00:24:07.392Z,0
2022-10-13T00:27:07.266Z,0
2022-10-13T00:30:07.301Z,0
2022-10-13T00:33:07.412Z,0
2022-10-13T00:36:07.359Z,0
2022-10-13T00:39:07.307Z,0
2022-10-13T00:42:07.348Z,0
2022-10-13T00:45:07.388Z,0
2022-10-13T00:48:07.417Z,0
2022-10-13T00:51:07.300Z,0
2022-10-13T00:54:07.316Z,0
2022-10-13T00:57:07.339Z,0
2022-10-13T01:00:07.460Z,0
2022-10-13T01:03:07.340Z,0
2022-10-13T01:06:07.417Z,0
2022-10-13T01:09:07.697Z,0
2022-10-13T01:12:07.357Z,0
2022-10-13T01:15:07.371Z,0
2022-10-13T01:18:07.337Z,0
2022-10-13T01:21:07.416Z,0
2022-10-13T01:24:07.351Z,0
2022-10-13T01:27:07.347Z,0
2022-10-13T01:30:07.347Z,0
2022-10-13T01:33:07.340Z,0
2022-10-13T01:36:07.404Z,0
2022-10-13T01:39:07.387Z,0
2022-10-13T01:42:07.322Z,0
2022-10-13T01:45:07.397Z,0
2022-10-13T01:48:07.423Z,0
2022-10-13T01:51:07.395Z,0
2022-10-13T01:54:07.385Z,0
2022-10-13T01:57:07.337Z,0
2022-10-13T02:00:07.365Z,0
2022-10-13T02:03:07.341Z,0
2022-10-13T02:06:07.379Z,0
2022-10-13T02:09:07.413Z,0
2022-10-13T02:12:07.589Z,0
2022-10-13T02:15:07.491Z,0
2022-10-13T02:18:07.352Z,0
2022-10-13T02:21:07.335Z,0
2022-10-13T02:24:07.347Z,0
2022-10-13T02:27:07.348Z,0
2022-10-13T02:30:07.297Z,0
2022-10-13T02:33:07.328Z,0
2022-10-13T02:36:07.392Z,0
2022-10-13T02:39:07.417Z,0
2022-10-13T02:42:07.418Z,0
2022-10-13T02:45:07.432Z,0
2022-10-13T02:48:07.401Z,0
2022-10-13T02:51:07.369Z,0
2022-10-13T02:54:07.378Z,0
2022-10-13T02:57:07.431Z,0
2022-10-13T03:00:07.421Z,0
2022-10-13T03:03:07.337Z,0
2022-10-13T03:06:07.486Z,0
2022-10-13T03:09:07.477Z,0
2022-10-13T03:12:07.461Z,0
2022-10-13T03:15:07.354Z,0
2022-10-13T03:18:07.428Z,0
2022-10-13T03:21:07.454Z,0
2022-10-13T03:24:07.335Z,0
2022-10-13T03:27:07.357Z,0
2022-10-13T03:30:07.466Z,0
2022-10-13T03:33:07.355Z,0
2022-10-13T03:36:07.354Z,0
2022-10-13T03:39:07.461Z,0
2022-10-13T03:42:07.429Z,0
2022-10-13T03:45:07.387Z,0
2022-10-13T03:48:07.458Z,0
2022-10-13T03:51:07.350Z,0
2022-10-13T03:54:07.457Z,0
2022-10-13T03:57:07.517Z,0
2022-10-13T04:00:07.440Z,0
2022-10-13T04:03:07.401Z,0
2022-10-13T04:06:07.345Z,0
2022-10-13T04:09:07.333Z,0
2022-10-13T04:12:07.491Z,0
2022-10-13T04:15:07.320Z,0
2022-10-13T04:18:07.337Z,0
2022-10-13T04:21:07.369Z,0
2022-10-13T04:24:07.439Z,0
2022-10-13T04:27:07.441Z,0
2022-10-13T04:30:07.442Z,0
2022-10-13T04:33:07.436Z,0
2022-10-13T04:36:07.452Z,0
2022-10-13T04:39:07.396Z,0
2022-10-13T04:42:07.320Z,0
2022-10-13T04:45:07.368Z,0
2022-10-13T04:48:07.373Z,0
2022-10-13T04:51:07.435Z,0
2022-10-13T04:54:07.369Z,0
2022-10-13T04:57:07.413Z,0
2022-10-13T05:00:07.406Z,0
2022-10-13T05:03:07.362Z,0
2022-10-13T05:06:07.380Z,0
2022-10-13T05:09:07.401Z,3
2022-10-13T05:12:07.320Z,3
2022-10-13T05:15:07.329Z,10
2022-10-13T05:18:07.321Z,17
2022-10-13T05:21:07.404Z,27
2022-10-13T05:24:07.355Z,43
2022-10-13T05:27:07.284Z,67
2022-10-13T05:30:07.390Z,93
2022-10-13T05:33:07.397Z,153
2022-10-13T05:36:07.312Z,233
2022-10-13T05:39:07.494Z,280
2022-10-13T05:42:07.383Z,317
2022-10-13T05:45:07.383Z,367
2022-10-13T05:48:07.558Z,437
2022-10-13T05:51:07.531Z,477
2022-10-13T05:54:07.301Z,543
2022-10-13T05:57:07.284Z,677
2022-10-13T06:00:07.453Z,837
2022-10-13T06:03:07.363Z,997
2022-10-13T06:06:07.335Z,1130
2022-10-13T06:09:07.292Z,1240
2022-10-13T06:12:07.386Z,1370
2022-10-13T06:15:07.345Z,1533
2022-10-13T06:18:07.368Z,1707
2022-10-13T06:21:07.404Z,1890
2022-10-13T06:24:07.393Z,2113
2022-10-13T06:27:07.404Z,2427
2022-10-13T06:30:07.476Z,2830
2022-10-13T06:33:07.372Z,3353
2022-10-13T06:36:07.487Z,4017
2022-10-13T06:39:07.407Z,4640
2022-10-13T06:42:07.391Z,5303
2022-10-13T06:45:07.423Z,5963
2022-10-13T06:48:07.475Z,6530
2022-10-13T06:51:07.333Z,6630
2022-10-13T06:54:07.359Z,6337
2022-10-13T06:57:07.289Z,6047
2022-10-13T07:00:07.553Z,5910
2022-10-13T07:03:07.308Z,5743
2022-10-13T07:06:07.436Z,5453
2022-10-13T07:09:07.439Z,4993
2022-10-13T07:12:07.362Z,4690
2022-10-13T07:15:07.319Z,4590
2022-10-13T07:18:07.414Z,4733
2022-10-13T07:21:07.343Z,5033
2022-10-13T07:24:07.418Z,5630
2022-10-13T07:27:14.484Z,6583
2022-10-13T07:30:07.407Z,7680
2022-10-13T07:33:07.336Z,8700
2022-10-13T07:36:07.409Z,9587
2022-10-13T07:39:07.387Z,10340
2022-10-13T07:42:07.444Z,10853
2022-10-13T07:45:07.491Z,11563
2022-10-13T07:48:07.422Z,12757
2022-10-13T07:51:07.422Z,16120
2022-10-13T07:54:07.364Z,18693
2022-10-13T07:57:07.322Z,14770
2022-10-13T08:00:07.443Z,13410
2022-10-13T08:03:07.353Z,11120
2022-10-13T08:06:07.673Z,12093
2022-10-13T08:09:07.386Z,13580
2022-10-13T08:12:08.767Z,14850
2022-10-13T08:15:13.143Z,15830
2022-10-13T08:18:07.403Z,19013
2022-10-13T08:24:07.316Z,14063
2022-10-13T08:27:07.370Z,12333
2022-10-13T08:30:07.436Z,13963
2022-10-13T08:33:07.455Z,17017
2022-10-13T08:36:07.414Z,17557
2022-10-13T08:39:07.414Z,16483
2022-10-13T08:42:07.351Z,16503
2022-10-13T08:45:48.910Z,20850
2022-10-13T08:48:07.384Z,29467
2022-10-13T08:51:07.319Z,29793
2022-10-13T08:54:07.312Z,32630
2022-10-13T09:00:07.384Z,31160
2022-10-13T09:03:07.366Z,30337
2022-10-13T09:06:07.386Z,29747
2022-10-13T09:09:07.403Z,24270
2022-10-13T09:12:07.369Z,26487
2022-10-13T09:15:07.345Z,26493
2022-10-13T09:18:07.340Z,24380
2022-10-13T09:21:07.398Z,20223
2022-10-13T09:24:07.379Z,23570
2022-10-13T09:27:07.297Z,26957
2022-10-13T09:30:07.390Z,30210
2022-10-13T09:33:07.351Z,31430
2022-10-13T09:36:07.304Z,34170
2022-10-13T09:39:07.318Z,35287
2022-10-13T09:42:07.344Z,33983
2022-10-13T09:45:07.445Z,31193
2022-10-13T09:48:07.377Z,32850
2022-10-13T09:51:07.355Z,35247
2022-10-13T09:54:07.379Z,35450
2022-10-13T09:57:07.284Z,35960
2022-10-13T10:03:07.303Z,18663
2022-10-13T10:06:07.720Z,16867
2022-10-13T10:09:11.991Z,18293
2022-10-13T10:12:07.408Z,18367
2022-10-13T10:15:07.344Z,41287
2022-10-13T10:18:07.394Z,36240
2022-10-13T10:21:07.400Z,33457
2022-10-13T10:24:07.405Z,33727
2022-10-13T10:27:07.612Z,40957
2022-10-13T10:30:07.469Z,39533
2022-10-13T10:33:07.451Z,40417
2022-10-13T10:36:07.524Z,35733
2022-10-13T10:39:07.404Z,30327
2022-10-13T10:42:07.309Z,34430
2022-10-13T10:45:07.426Z,45773
2022-10-13T10:48:07.426Z,45567
2022-10-13T10:51:07.368Z,47323
2022-10-13T10:54:07.367Z,48580
2022-10-13T10:57:07.366Z,45770
2022-10-13T11:00:07.504Z,45550
2022-10-13T11:03:07.318Z,38810
2022-10-13T11:06:07.424Z,37590
2022-10-13T11:09:07.315Z,48377
2022-10-13T11:12:07.393Z,43400
2022-10-13T11:15:07.401Z,41783
2022-10-13T11:18:07.265Z,39000
2022-10-13T11:21:07.285Z,37800
2022-10-13T11:24:09.006Z,36100
2022-10-13T11:27:07.338Z,37513
2022-10-13T11:30:07.398Z,32233
2022-10-13T11:33:07.428Z,34027
2022-10-13T11:36:07.388Z,34743
2022-10-13T11:39:07.313Z,50630
2022-10-13T11:42:07.368Z,42687
2022-10-13T11:45:07.334Z,50297
2022-10-13T11:51:07.300Z,51207
2022-10-13T11:54:07.433Z,49640
2022-10-13T11:57:07.285Z,41263
2022-10-13T12:00:07.456Z,28693
2022-10-13T12:03:07.795Z,25590
2022-10-13T12:06:07.313Z,29367
2022-10-13T12:09:07.598Z,29080
2022-10-13T12:12:07.343Z,33337
2022-10-13T12:15:13.707Z,52007
2022-10-13T12:18:07.371Z,49447
2022-10-13T12:21:07.330Z,48410
2022-10-13T12:24:07.395Z,46143
2022-10-13T12:27:07.353Z,45073
2022-10-13T12:30:07.599Z,43823
2022-10-13T12:33:07.354Z,40503
2022-10-13T12:36:07.341Z,36970
2022-10-13T12:39:07.455Z,42563
2022-10-13T12:42:07.428Z,17663
2022-10-13T12:45:07.398Z,22243
2022-10-13T12:48:07.371Z,23180
2022-10-13T12:51:07.350Z,23247
2022-10-13T12:54:07.350Z,26543
2022-10-13T12:57:07.396Z,23070
2022-10-13T13:00:07.490Z,35680
2022-10-13T13:03:07.324Z,39847
2022-10-13T13:06:07.783Z,37130
2022-10-13T13:09:07.380Z,33860
2022-10-13T13:12:07.315Z,30130
2022-10-13T13:15:07.413Z,33087
2022-10-13T13:18:07.470Z,37017
2022-10-13T13:21:07.452Z,36620
2022-10-13T13:24:41.384Z,35067
2022-10-13T13:27:07.367Z,20387
2022-10-13T13:30:07.541Z,13030
2022-10-13T13:33:07.600Z,12360
2022-10-13T13:36:07.350Z,12387
2022-10-13T13:39:07.311Z,13230
2022-10-13T13:42:07.352Z,12993
2022-10-13T13:45:07.470Z,24980
2022-10-13T13:48:07.857Z,14117
2022-10-13T13:51:07.338Z,23633
2022-10-13T13:54:07.392Z,18593
2022-10-13T13:57:07.377Z,13383
2022-10-13T14:00:07.635Z,12837
2022-10-13T14:03:07.375Z,13583
2022-10-13T14:06:07.413Z,13840
2022-10-13T14:09:07.393Z,15617
2022-10-13T14:12:07.374Z,21920
2022-10-13T14:15:07.384Z,18950
2022-10-13T14:18:07.509Z,20633
2022-10-13T14:21:07.356Z,20930
2022-10-13T14:24:07.419Z,14900
2022-10-13T14:27:07.324Z,17473
2022-10-13T14:30:07.455Z,13390
2022-10-13T14:33:07.334Z,11507
2022-10-13T14:36:07.438Z,10047
2022-10-13T14:39:07.352Z,8147
2022-10-13T14:42:07.375Z,7057
2022-10-13T14:45:07.370Z,15650
2022-10-13T14:48:07.366Z,7000
2022-10-13T14:51:07.391Z,5430
2022-10-13T14:54:07.386Z,4877
2022-10-13T14:57:07.343Z,4810
2022-10-13T15:00:09.124Z,5123
2022-10-13T15:03:07.291Z,5293
2022-10-13T15:06:07.317Z,5550
2022-10-13T15:12:07.318Z,5527
2022-10-13T15:15:07.374Z,5573
2022-10-13T15:18:07.343Z,5523
2022-10-13T15:21:07.318Z,5423
2022-10-13T15:24:07.347Z,5187
2022-10-13T15:27:07.304Z,5050
2022-10-13T15:30:07.380Z,4837
2022-10-13T15:33:07.357Z,4763
2022-10-13T15:36:07.339Z,4777
2022-10-13T15:39:07.360Z,4637
2022-10-13T15:42:07.329Z,4413
2022-10-13T15:45:18.520Z,4230
2022-10-13T15:48:07.345Z,3910
2022-10-13T15:51:07.365Z,3667
2022-10-13T15:54:07.350Z,3237
2022-10-13T15:57:07.450Z,2823
2022-10-13T16:00:07.429Z,2497
2022-10-13T16:03:07.433Z,2113
2022-10-13T16:06:07.375Z,1693
2022-10-13T16:09:07.373Z,1247
2022-10-13T16:12:07.371Z,997
2022-10-13T16:15:07.342Z,790
2022-10-13T16:18:07.362Z,633
2022-10-13T16:21:07.357Z,503
2022-10-13T16:24:07.373Z,387
2022-10-13T16:27:07.356Z,283
2022-10-13T16:30:07.444Z,213
2022-10-13T16:33:07.352Z,163
2022-10-13T16:36:07.318Z,123
2022-10-13T16:39:07.297Z,90
2022-10-13T16:42:07.298Z,60
2022-10-13T16:45:07.346Z,40
2022-10-13T16:48:07.386Z,27
2022-10-13T16:51:07.354Z,13
2022-10-13T16:54:11.271Z,7
2022-10-13T16:57:07.318Z,3
2022-10-13T17:00:07.393Z,3
2022-10-13T17:03:07.378Z,0
2022-10-13T17:06:07.510Z,0
2022-10-13T17:09:07.319Z,0
2022-10-13T17:12:07.373Z,0
2022-10-13T17:15:07.387Z,0
2022-10-13T17:18:07.373Z,0
2022-10-13T17:21:07.386Z,0
2022-10-13T17:24:07.337Z,0
2022-10-13T17:27:07.296Z,0
2022-10-13T17:30:07.414Z,0
2022-10-13T17:33:11.325Z,0
2022-10-13T17:36:07.396Z,0
2022-10-13T17:39:07.363Z,0
2022-10-13T17:42:07.286Z,0
2022-10-13T17:45:07.390Z,0
2022-10-13T17:48:07.296Z,0
2022-10-13T17:51:07.265Z,0
2022-10-13T17:54:10.251Z,0
2022-10-13T17:57:07.332Z,0
2022-10-13T18:00:07.390Z,0
2022-10-13T18:03:07.384Z,0
2022-10-13T18:06:07.347Z,0
2022-10-13T18:09:07.413Z,0
2022-10-13T18:12:07.449Z,0
2022-10-13T18:15:07.371Z,0
2022-10-13T18:18:07.290Z,0
2022-10-13T18:21:07.375Z,0
2022-10-13T18:24:07.379Z,0
2022-10-13T18:27:07.348Z,0
2022-10-13T18:30:07.307Z,0
2022-10-13T18:33:07.344Z,0
2022-10-13T18:36:07.330Z,0
2022-10-13T18:39:07.394Z,0
2022-10-13T18:42:07.330Z,0
2022-10-13T18:45:07.285Z,0
2022-10-13T18:48:07.356Z,0
2022-10-13T18:51:07.323Z,0
2022-10-13T18:54:07.565Z,0
2022-10-13T18:57:07.305Z,0
2022-10-13T19:00:07.409Z,0
2022-10-13T19:03:07.291Z,0
2022-10-13T19:06:07.412Z,0
2022-10-13T19:09:07.512Z,0
2022-10-13T19:12:07.382Z,0
2022-10-13T19:15:07.392Z,0
2022-10-13T19:18:07.398Z,0
2022-10-13T19:21:07.367Z,0
2022-10-13T19:24:07.418Z,0
2022-10-13T19:27:07.299Z,0
2022-10-13T19:30:07.453Z,0
2022-10-13T19:33:07.327Z,0
2022-10-13T19:36:07.377Z,0
2022-10-13T19:39:07.290Z,0
2022-10-13T19:42:07.333Z,0
2022-10-13T19:45:07.315Z,0
2022-10-13T19:48:07.376Z,0
2022-10-13T19:51:07.289Z,0
2022-10-13T19:54:07.343Z,0
2022-10-13T19:57:07.400Z,0
2022-10-13T20:00:07.464Z,0
2022-10-13T20:03:07.336Z,0
2022-10-13T20:06:07.359Z,0
2022-10-13T20:09:07.372Z,0
2022-10-13T20:12:07.364Z,0
2022-10-13T20:15:07.358Z,0
2022-10-13T20:18:07.411Z,0
2022-10-13T20:21:07.438Z,0
2022-10-13T20:24:07.356Z,0
2022-10-13T20:27:07.296Z,0
2022-10-13T20:30:07.346Z,0
2022-10-13T20:33:07.332Z,0
2022-10-13T20:36:07.369Z,0
2022-10-13T20:39:07.329Z,0
2022-10-13T20:42:07.373Z,0
2022-10-13T20:45:07.430Z,0
2022-10-13T20:48:07.415Z,0
2022-10-13T20:51:07.389Z,0
2022-10-13T20:54:08.070Z,0
2022-10-13T20:57:07.309Z,0
2022-10-13T21:00:07.447Z,0
2022-10-13T21:03:09.079Z,0
2022-10-13T21:06:07.320Z,0
2022-10-13T21:09:07.348Z,0
2022-10-13T21:12:07.363Z,0
2022-10-13T21:15:07.387Z,0
2022-10-13T21:18:07.335Z,0
2022-10-13T21:21:07.404Z,0
2022-10-13T21:24:07.289Z,0
2022-10-13T21:27:07.414Z,0
2022-10-13T21:30:07.363Z,0
2022-10-13T21:33:07.378Z,0
2022-10-13T21:36:07.373Z,0
2022-10-13T21:39:07.344Z,0
2022-10-13T21:42:07.319Z,0
2022-10-13T21:45:07.379Z,0
2022-10-13T21:48:07.357Z,0
2022-10-13T21:51:07.385Z,0
2022-10-13T21:54:07.300Z,0
2022-10-13T21:57:07.371Z,0
2022-10-13T22:00:07.664Z,0
2022-10-13T22:03:07.328Z,0
2022-10-13T22:06:07.311Z,0
2022-10-13T22:09:07.398Z,0
2022-10-13T22:12:07.425Z,0
2022-10-13T22:15:07.530Z,0
2022-10-13T22:18:07.352Z,0
2022-10-13T22:21:07.357Z,0
2022-10-13T22:24:07.324Z,0
2022-10-13T22:27:07.289Z,0
2022-10-13T22:30:07.329Z,0
2022-10-13T22:33:07.354Z,0
2022-10-13T22:36:07.386Z,0
2022-10-13T22:39:07.310Z,0
2022-10-13T22:42:07.369Z,0
2022-10-13T22:45:07.334Z,0
2022-10-13T22:48:07.402Z,0
2022-10-13T22:51:07.357Z,0
2022-10-13T22:54:07.422Z,0
2022-10-13T22:57:07.308Z,0
2022-10-13T23:00:07.458Z,0
2022-10-13T23:03:07.750Z,0
2022-10-13T23:06:07.392Z,0
2022-10-13T23:09:07.465Z,0
2022-10-13T23:12:07.290Z,0
2022-10-13T23:15:07.383Z,0
2022-10-13T23:18:07.383Z,0
2022-10-13T23:21:07.334Z,0
2022-10-13T23:24:07.444Z,0
2022-10-13T23:27:07.337Z,0
2022-10-13T23:30:07.329Z,0
2022-10-13T23:33:07.471Z,0
2022-10-13T23:36:07.305Z,0
2022-10-13T23:39:07.399Z,0
2022-10-13T23:42:07.340Z,0
2022-10-13T23:45:07.339Z,0
2022-10-13T23:48:07.446Z,0
2022-10-13T23:51:07.338Z,0
2022-10-13T23:54:07.330Z,0
2022-10-13T23:57:07.372Z,0
